Nearby METAR Reports

 

KHIF - Hill Afb/Ogden, Utah, USA
Distance from station: ENE 6mi, 9km
Updated: Sun, 22-Oct-2017 7:58pm MDT
Overcast
Overcast
 Wind from SSE
Wind: SSE 7 mph , 11 km/h
Temperature: 61°F , 16°C
Dew Point: 27°F , -3°C
Humidity: 27%
Barometer: 30.35 inHg , 1027.8 hPa
Clouds: Overcast
Visibility: 10 miles , 16 km
Cloud details: Overcast 8000 ft
2017/10/23 01:58 KHIF 230158Z AUTO 16006KT 10SM OVC080 16/M03 A3035 RMK AO2 SLP251 T01581027 $
KOGD - Ogden, Utah, USA
Distance from station: NNE 9mi, 14km
Updated: Sun, 22-Oct-2017 7:53pm MDT
Overcast
Overcast
 Wind from SSE
Wind: SSE 6 mph , 9 km/h
Temperature: 61°F , 16°C
Dew Point: 30°F , -1°C
Humidity: 31%
Barometer: 30.33 inHg , 1027.1 hPa
Clouds: Overcast
Visibility: 10 miles , 16 km
Cloud details: Overcast 9000 ft
2017/10/23 01:53 KOGD 230153Z AUTO 15005KT 10SM OVC090 16/M01 A3033 RMK AO2 SLP246 T01611006
 
KSLC - Salt Lake City, Utah, USA
Distance from station: SSE 21mi, 34km
Updated: Sun, 22-Oct-2017 7:54pm MDT
Mostly cloudy
Mostly cloudy
 Wind from calm
Wind: Calm
Temperature: 63°F , 17°C
Dew Point: 30°F , -1°C
Humidity: 30%
Barometer: 30.34 inHg , 1027.4 hPa
Clouds: Mostly cloudy
Visibility: 10 miles , 16 km
Cloud details: Partly cloudy 9000 ft
Mostly cloudy 20000 ft
2017/10/23 01:54 KSLC 230154Z 00000KT 10SM SCT090 BKN200 17/M01 A3034 RMK AO2 SLP248 T01671011 $
KLGU - Logan, Utah, USA
Distance from station: NNE 50mi, 80km
Updated: Sun, 22-Oct-2017 7:51pm MDT
Overcast
Overcast
 Wind from NE
Wind: NE 5 mph , 7 km/h
Temperature: 55°F , 13°C
Dew Point: 36°F , 2°C
Humidity: 47%
Barometer: 30.34 inHg , 1027.4 hPa
Clouds: Overcast
Visibility: 10 miles , 16 km
Cloud details: Overcast 8500 ft
2017/10/23 01:51 KLGU 230151Z AUTO 04004KT 10SM OVC085 13/02 A3034 RMK AO2 SLP259 T01330022 $
 
K36U - Heber/Russ Mcdon, Utah, USA
Distance from station: SE 53mi, 85km
Updated: Wed, 11-Oct-2017 6:50pm MDT
NOT Current
Clear
Clear
 Wind from SSW
Wind: SSW 10 mph , 17 km/h, Gust: 18 mph , 30 km/h
Temperature: 63°F , 17°C
Dew Point: 16°F , -9°C
Humidity: 16%
Barometer: 29.87 inHg , 1011.5 hPa
Clouds: Clear
Visibility: 10 miles , 16 km
2017/10/12 00:50 K36U 120050Z AUTO 21009G16KT 10SM CLR 17/M09 A2987 RMK AO2
KEVW - Evanston, Wyoming, USA
Distance from station: ENE 55mi, 89km
Updated: Sun, 22-Oct-2017 7:53pm MDT
Overcast
Overcast
 Wind from SW
Wind: SW 15 mph , 24 km/h
Temperature: 50°F , 10°C
Wind Chill: 45°F , 7°C
Dew Point: 27°F , -3°C
Humidity: 40%
Barometer: 30.41 inHg , 1029.8 hPa
Clouds: Overcast
Visibility: 10 miles , 16 km
Cloud details: Overcast 6000 ft
2017/10/23 01:53 KEVW 230153Z AUTO 23013KT 10SM OVC060 10/M03 A3041 RMK AO2 SLP263 T01001028
 
KPVU - Provo Muni, Utah, USA
Distance from station: SSE 62mi, 100km
Updated: Sun, 22-Oct-2017 7:56pm MDT
Clear
Clear
 Wind from WNW
Wind: WNW 5 mph , 7 km/h
Temperature: 52°F , 11°C
Dew Point: 41°F , 5°C
Humidity: 67%
Barometer: 30.36 inHg , 1028.1 hPa
Clouds: Clear
Visibility: 10 miles , 16 km
2017/10/23 01:56 KPVU 230156Z 29004KT 10SM CLR 11/05 A3036 RMK AO2 SLP280 T01110050
KDPG - Dugway Prvg Grou, Utah, USA
Distance from station: SW 75mi, 121km
Updated: Thu, 19-Oct-2017 4:53pm MDT
NOT Current
Mostly cloudy
Mostly cloudy
 Wind from SE
Wind: SE 7 mph , 11 km/h
Temperature: 75°F , 24°C
Dew Point: 23°F , -5°C
Humidity: 14%
Barometer: 29.84 inHg , 1010.5 hPa
Clouds: Mostly cloudy
Visibility: 10 miles , 16 km
Cloud details: Partly cloudy 14000 ft
Mostly cloudy 18000 ft
2017/10/19 22:53 KDPG 192253Z 14006KT 10SM SCT140 BKN180 24/M05 A2984 RMK SLP104 NOSPECI T02431049 LAST
 
KENV - Wendover (aut), Utah, USA
Distance from station: WSW 105mi, 169km
Updated: Sun, 22-Oct-2017 7:56pm MDT
Clear
Clear
 Wind from calm
Wind: Calm
Temperature: 54°F , 12°C
Dew Point: 27°F , -3°C
Humidity: 35%
Barometer: 30.34 inHg , 1027.4 hPa
Clouds: Clear
Visibility: 10 miles , 16 km
2017/10/23 01:56 KENV 230156Z AUTO 00000KT 10SM CLR 12/M03 A3034 RMK AO2 SLP280 T01221028
KPUC - Price, Utah, USA
Distance from station: SE 123mi, 197km
Updated: Sun, 22-Oct-2017 7:53pm MDT
Clear
Clear
 Wind from NE
Wind: NE 7 mph , 11 km/h
Temperature: 46°F , 8°C
Wind Chill: 42°F , 6°C
Dew Point: 18°F , -8°C
Humidity: 32%
Barometer: 30.42 inHg , 1030.1 hPa
Clouds: Clear
Visibility: 10 miles , 16 km
2017/10/23 01:53 KPUC 230153Z AUTO 05006KT 10SM CLR 08/M08 A3042 RMK AO2 SLP315 T00781078 $
 
KPIH - Pocatello, Idaho, USA
Distance from station: NNW 130mi, 208km
Updated: Sun, 22-Oct-2017 7:53pm MDT
Partly cloudy
Partly cloudy
 Wind from SW
Wind: SW 18 mph , 30 km/h
Temperature: 55°F , 13°C
Dew Point: 37°F , 3°C
Humidity: 51%
Barometer: 30.34 inHg , 1027.4 hPa
Clouds: Partly cloudy
Visibility: 10 miles , 16 km
Cloud details: Partly cloudy 11000 ft
2017/10/23 01:53 KPIH 230153Z 23016KT 10SM SCT110 13/03 A3034 RMK AO2 SLP258 T01280033
KBYI - Burley, Idaho, USA
Distance from station: NW 134mi, 216km
Updated: Sun, 22-Oct-2017 7:53pm MDT
Clear
Clear
 Wind from SSW
Wind: SSW 6 mph , 9 km/h
Temperature: 54°F , 12°C
Dew Point: 39°F , 4°C
Humidity: 58%
Barometer: 30.34 inHg , 1027.4 hPa
Clouds: Clear
Visibility: 10 miles , 16 km
2017/10/23 01:53 KBYI 230153Z AUTO 21005KT 10SM CLR 12/04 A3034 RMK AO2 SLP266 T01170044
 
KVEL - Vernal, Utah, USA
Distance from station: ESE 140mi, 226km
Updated: Sun, 22-Oct-2017 7:53pm MDT
Clear
Clear
 Wind from WNW
Wind: WNW 7 mph , 11 km/h
Temperature: 46°F , 8°C
Wind Chill: 42°F , 6°C
Dew Point: 25°F , -4°C
Humidity: 43%
Barometer: 30.34 inHg , 1027.4 hPa
Clouds: Clear
Visibility: 10 miles , 16 km
2017/10/23 01:53 KVEL 230153Z AUTO 30006KT 10SM CLR 08/M04 A3034 RMK AO2 SLP278 T00831039
KBPI - Big Piney, Wyoming, USA
Distance from station: NE 145mi, 234km
Updated: Sun, 22-Oct-2017 7:53pm MDT
Clear
Clear
 Wind from NW
Wind: NW 9 mph , 15 km/h
Temperature: 43°F , 6°C
Wind Chill: 38°F , 3°C
Dew Point: 30°F , -1°C
Humidity: 61%
Barometer: 30.34 inHg , 1027.4 hPa
Clouds: Clear
Visibility: 10 miles , 16 km
2017/10/23 01:53 KBPI 230153Z AUTO 32008KT 10SM CLR 06/M01 A3034 RMK AO2 SLP282 T00611011